Time;durP1;ratioP1;P1;durP2;ratioP2;P2;SDS_P1;SDS_P2;PMS_P1;PMS_P2;Temp;Humidity;BMP_temperature;BMP_pressure;BME280_temperature;BME280_humidity;BME280_pressure;Samples;Min_cycle;Max_cycle;Signal;HPM_P1;HPM_P2
2024/03/28 00:01:58;;;;;;;10.32;2.30;;;8.40;99.90;;;;;;6186018;28;20171;-89
2024/03/28 00:04:58;;;;;;;10.60;2.25;;;8.50;99.90;;;;;;6193802;28;20466;-89
2024/03/28 00:07:59;;;;;;;6.72;2.00;;;8.50;99.90;;;;;;6186511;28;20498;-90
2024/03/28 00:11:00;;;;;;;7.10;2.00;;;8.50;99.90;;;;;;6192735;28;20061;-89
2024/03/28 00:14:01;;;;;;;8.02;2.13;;;8.60;99.90;;;;;;6168121;28;20089;-89
2024/03/28 00:17:02;;;;;;;6.43;2.05;;;8.70;99.90;;;;;;6170671;28;20137;-88
2024/03/28 00:20:03;;;;;;;5.95;1.88;;;8.70;99.90;;;;;;6208783;28;20108;-89
2024/03/28 00:23:04;;;;;;;6.68;2.10;;;8.70;99.90;;;;;;6185958;28;20065;-90
2024/03/28 00:26:05;;;;;;;8.30;2.00;;;8.70;99.90;;;;;;6209038;28;20248;-89
2024/03/28 00:29:06;;;;;;;6.43;1.60;;;8.80;99.90;;;;;;6173152;28;20417;-88
2024/03/28 00:32:07;;;;;;;7.57;2.25;;;8.80;99.90;;;;;;6170557;28;20144;-91
2024/03/28 00:35:07;;;;;;;8.32;1.90;;;8.80;99.90;;;;;;6192935;28;20405;-91
2024/03/28 00:38:08;;;;;;;5.95;1.80;;;8.80;99.90;;;;;;6169686;28;20050;-89
2024/03/28 00:41:09;;;;;;;7.07;1.70;;;8.80;99.90;;;;;;6208239;28;20086;-88
2024/03/28 00:44:09;;;;;;;9.93;1.90;;;8.80;99.90;;;;;;6180960;28;20050;-88
2024/03/28 00:47:10;;;;;;;8.70;1.73;;;8.80;99.90;;;;;;6168437;28;20058;-90
2024/03/28 00:50:11;;;;;;;6.22;1.83;;;8.80;99.90;;;;;;6191909;28;20057;-87
2024/03/28 00:53:11;;;;;;;7.65;2.03;;;8.80;99.90;;;;;;6184703;28;20050;-89
2024/03/28 00:56:12;;;;;;;7.57;1.85;;;8.80;99.90;;;;;;6208468;28;20053;-89
2024/03/28 00:59:13;;;;;;;6.65;2.00;;;8.80;99.90;;;;;;6182191;28;20481;-89
2024/03/28 01:02:14;;;;;;;7.18;1.73;;;8.70;99.90;;;;;;6184994;28;20054;-87
2024/03/28 01:05:14;;;;;;;8.55;1.85;;;8.80;99.90;;;;;;6191747;28;20507;-87
2024/03/28 01:08:15;;;;;;;7.28;1.50;;;8.70;99.90;;;;;;6184760;28;20568;-86
2024/03/28 01:11:16;;;;;;;5.30;1.67;;;8.70;99.90;;;;;;6206527;28;20049;-81
2024/03/28 01:14:17;;;;;;;8.85;1.55;;;8.60;99.90;;;;;;6184261;28;20143;-85
2024/03/28 01:17:18;;;;;;;6.50;1.70;;;8.50;99.90;;;;;;6183583;28;20122;-85
2024/03/28 01:20:18;;;;;;;9.77;1.70;;;8.40;99.90;;;;;;6189947;28;20493;-84
2024/03/28 01:23:19;;;;;;;7.45;1.60;;;8.30;99.90;;;;;;6167378;28;20065;-85
2024/03/28 01:26:20;;;;;;;6.57;1.95;;;8.30;99.90;;;;;;6206436;28;20065;-81
2024/03/28 01:29:20;;;;;;;8.23;1.75;;;8.30;99.90;;;;;;6170593;28;20054;-85
2024/03/28 01:32:21;;;;;;;11.05;2.10;;;8.20;99.90;;;;;;6170759;28;20058;-85
2024/03/28 01:35:21;;;;;;;11.07;1.95;;;8.20;99.90;;;;;;6208966;28;20148;-85
2024/03/28 01:38:22;;;;;;;6.72;1.60;;;8.20;99.90;;;;;;6169072;28;20371;-85
2024/03/28 01:41:23;;;;;;;9.80;1.90;;;8.20;99.90;;;;;;6208639;28;20057;-84
2024/03/28 01:44:23;;;;;;;6.72;1.70;;;8.20;99.90;;;;;;6180516;28;20061;-85
2024/03/28 01:47:24;;;;;;;6.72;1.42;;;8.10;99.90;;;;;;6172984;28;20050;-86
2024/03/28 01:50:25;;;;;;;9.25;1.50;;;8.10;99.90;;;;;;6211586;28;20058;-88
2024/03/28 01:53:26;;;;;;;5.15;1.40;;;8.10;99.90;;;;;;6172587;28;20133;-87
2024/03/28 01:56:26;;;;;;;6.03;1.15;;;8.10;99.90;;;;;;6212477;28;20096;-87
2024/03/28 01:59:27;;;;;;;6.47;1.67;;;8.10;99.90;;;;;;6179291;28;20486;-87
2024/03/28 02:02:28;;;;;;;4.65;1.17;;;8.00;99.90;;;;;;6171743;28;20462;-85
2024/03/28 02:05:29;;;;;;;4.43;1.10;;;7.90;99.90;;;;;;6212212;28;20054;-85
2024/03/28 02:08:30;;;;;;;5.50;1.23;;;7.90;99.90;;;;;;6188601;28;20443;-86
2024/03/28 02:11:30;;;;;;;6.43;1.30;;;7.90;99.90;;;;;;6210952;28;20104;-88
2024/03/28 02:14:31;;;;;;;3.35;1.13;;;7.80;99.90;;;;;;6190768;28;20093;-88
2024/03/28 02:17:32;;;;;;;4.70;0.80;;;7.80;99.90;;;;;;6188515;28;20086;-89
2024/03/28 02:20:33;;;;;;;3.38;0.70;;;7.70;99.90;;;;;;6212151;28;20593;-88
2024/03/28 02:23:34;;;;;;;2.60;0.70;;;7.50;99.90;;;;;;6171898;28;20085;-88
2024/03/28 02:26:35;;;;;;;4.10;0.70;;;7.40;99.90;;;;;;6196106;28;20050;-90
2024/03/28 02:29:36;;;;;;;1.00;0.40;;;7.20;99.90;;;;;;6170469;28;20093;-90
2024/03/28 02:32:37;;;;;;;2.33;0.50;;;7.20;99.90;;;;;;6171832;28;20108;-90
2024/03/28 02:35:37;;;;;;;3.38;0.70;;;7.20;99.90;;;;;;6195440;28;20058;-90
2024/03/28 02:38:38;;;;;;;3.53;0.80;;;7.10;99.90;;;;;;6171806;28;20469;-89
2024/03/28 02:41:39;;;;;;;2.42;0.70;;;7.20;99.90;;;;;;6211034;28;20099;-90
2024/03/28 02:44:40;;;;;;;4.03;0.70;;;7.10;99.90;;;;;;6186905;28;20136;-90
2024/03/28 02:47:40;;;;;;;4.05;0.77;;;7.10;99.90;;;;;;6170352;28;20277;-89
2024/03/28 02:50:41;;;;;;;2.85;0.82;;;7.10;99.90;;;;;;6194463;28;20057;-90
2024/03/28 02:53:42;;;;;;;2.45;0.80;;;7.20;99.90;;;;;;6187529;28;20054;-90
2024/03/28 02:56:42;;;;;;;3.13;1.05;;;7.20;99.90;;;;;;6210486;28;20046;-90
2024/03/28 02:59:43;;;;;;;6.07;1.00;;;7.20;99.90;;;;;;6167021;28;20054;-90
2024/03/28 03:02:44;;;;;;;3.42;0.70;;;7.30;99.90;;;;;;6208454;23;20053;-91
2024/03/28 03:05:45;;;;;;;4.53;0.90;;;7.40;99.90;;;;;;6188935;28;20077;-90
2024/03/28 03:08:46;;;;;;;3.63;0.80;;;7.40;99.90;;;;;;6194493;28;20085;-91
2024/03/28 03:11:46;;;;;;;6.25;0.93;;;7.40;99.90;;;;;;6193827;28;20077;-90
2024/03/28 03:14:47;;;;;;;6.32;1.25;;;7.40;99.90;;;;;;6203667;28;20104;-89
2024/03/28 03:17:48;;;;;;;3.38;0.80;;;7.40;99.90;;;;;;6209181;28;20049;-90
2024/03/28 03:20:49;;;;;;;5.40;0.95;;;7.40;99.90;;;;;;6209803;28;20051;-89
2024/03/28 03:23:51;;;;;;;6.60;1.08;;;7.40;99.90;;;;;;6209962;28;20058;-90
2024/03/28 03:26:54;;;;;;;7.22;1.27;;;7.30;99.90;;;;;;6209818;28;20046;-89
2024/03/28 03:36:35;;;;;;;8.60;1.17;;;7.30;99.90;;;;;;6209224;28;20058;-90
2024/03/28 03:39:36;;;;;;;4.80;0.90;;;7.30;99.90;;;;;;6193416;28;20155;-88
2024/03/28 03:42:36;;;;;;;8.50;1.23;;;7.10;99.90;;;;;;6209016;28;20045;-89
2024/03/28 03:45:37;;;;;;;6.25;1.05;;;7.00;99.90;;;;;;6187218;28;20064;-90
2024/03/28 03:48:38;;;;;;;5.45;1.10;;;6.90;99.90;;;;;;6193293;28;20097;-90
2024/03/28 03:51:39;;;;;;;6.82;0.90;;;6.90;99.90;;;;;;6193465;28;20493;-90
2024/03/28 03:54:39;;;;;;;6.05;1.02;;;6.80;99.90;;;;;;6192999;28;20098;-89
2024/03/28 03:57:40;;;;;;;7.05;0.80;;;6.60;99.90;;;;;;6208766;28;20057;-90
2024/03/28 04:00:42;;;;;;;7.78;1.00;;;6.60;99.90;;;;;;6192418;28;20050;-89
2024/03/28 04:03:43;;;;;;;5.03;0.98;;;6.50;99.90;;;;;;6192558;28;20432;-90
2024/03/28 04:06:44;;;;;;;8.48;1.05;;;6.40;99.90;;;;;;6191024;28;20054;-88
2024/03/28 04:09:46;;;;;;;6.25;0.60;;;6.40;99.90;;;;;;6208759;28;20141;-89
2024/03/28 04:12:46;;;;;;;4.00;0.65;;;6.30;99.90;;;;;;6191299;28;20489;-90
2024/03/28 04:15:47;;;;;;;7.82;1.00;;;6.20;99.90;;;;;;6187375;28;20177;-90
2024/03/28 04:18:48;;;;;;;5.88;1.10;;;6.10;99.90;;;;;;6184580;28;20137;-90
2024/03/28 04:21:50;;;;;;;9.38;1.05;;;6.20;99.90;;;;;;6189546;28;20081;-90
2024/03/28 04:24:51;;;;;;;5.30;0.88;;;6.10;99.90;;;;;;6207945;28;20042;-91
2024/03/28 04:27:52;;;;;;;3.83;0.88;;;6.00;99.90;;;;;;6208602;28;20093;-90
2024/03/28 04:30:52;;;;;;;2.63;0.70;;;5.90;99.90;;;;;;6182127;28;20508;-90
2024/03/28 04:33:53;;;;;;;2.67;0.55;;;5.90;99.90;;;;;;6184493;28;20133;-90
2024/03/28 04:36:54;;;;;;;4.22;0.73;;;5.80;99.90;;;;;;6191683;28;20093;-91
2024/03/28 04:39:55;;;;;;;5.88;0.82;;;5.80;99.90;;;;;;6208147;28;20046;-90
2024/03/28 04:42:56;;;;;;;8.15;0.70;;;5.70;99.90;;;;;;6216936;28;20614;-90
2024/03/28 04:45:57;;;;;;;3.70;0.40;;;5.60;99.90;;;;;;6195105;28;20050;-91
2024/03/28 04:48:58;;;;;;;2.53;0.52;;;5.50;99.90;;;;;;6202777;28;20073;-92
2024/03/28 04:51:59;;;;;;;3.95;0.65;;;5.50;99.90;;;;;;6208977;28;20108;-91
2024/03/28 04:55:00;;;;;;;4.50;0.80;;;5.50;99.90;;;;;;6227058;28;20105;-91
2024/03/28 04:58:01;;;;;;;4.15;0.65;;;5.50;99.90;;;;;;6207673;28;20078;-89
2024/03/28 05:01:01;;;;;;;3.28;0.88;;;5.30;99.90;;;;;;6183589;28;20082;-91
2024/03/28 05:04:02;;;;;;;2.75;0.45;;;5.30;99.90;;;;;;6214589;28;20065;-91
2024/03/28 05:07:04;;;;;;;3.40;0.52;;;5.20;99.90;;;;;;6193075;28;20057;-90
2024/03/28 05:10:05;;;;;;;2.95;0.50;;;5.20;99.90;;;;;;6193769;28;20058;-91
2024/03/28 05:13:09;;;;;;;3.08;0.55;;;5.20;99.90;;;;;;6193501;28;20485;-90
2024/03/28 05:16:14;;;;;;;4.22;0.50;;;5.10;99.90;;;;;;6188751;28;20061;-90
2024/03/28 05:19:15;;;;;;;4.00;0.52;;;5.10;99.90;;;;;;6184092;28;20148;-89
2024/03/28 05:22:16;;;;;;;6.13;0.90;;;5.10;99.90;;;;;;6190448;28;20155;-89
2024/03/28 05:25:17;;;;;;;4.90;0.70;;;5.10;99.90;;;;;;6212803;28;20085;-90
2024/03/28 05:28:17;;;;;;;6.25;0.80;;;5.00;99.90;;;;;;6207458;28;20085;-91
2024/03/28 05:31:18;;;;;;;4.03;0.70;;;5.00;99.90;;;;;;6173645;28;20058;-90
2024/03/28 05:34:19;;;;;;;3.38;0.60;;;5.00;99.90;;;;;;6166890;28;20136;-91
2024/03/28 05:37:21;;;;;;;6.25;1.00;;;4.90;99.90;;;;;;6190404;28;20173;-89
2024/03/28 05:40:22;;;;;;;7.22;1.05;;;4.90;99.90;;;;;;6191024;28;20065;-89
2024/03/28 05:43:23;;;;;;;12.60;1.45;;;4.90;99.90;;;;;;6188252;28;20381;-81
2024/03/28 05:46:24;;;;;;;6.28;0.82;;;4.90;99.90;;;;;;6191067;28;20876;-90
2024/03/28 05:49:25;;;;;;;6.65;0.70;;;5.00;99.90;;;;;;6167303;28;20058;-89
2024/03/28 05:52:26;;;;;;;5.72;0.82;;;4.80;99.90;;;;;;6189828;28;20153;-89
2024/03/28 05:55:27;;;;;;;11.40;1.00;;;5.00;99.90;;;;;;6191725;28;20054;-89
2024/03/28 05:58:28;;;;;;;8.85;1.25;;;4.90;99.90;;;;;;6201459;28;20050;-91
2024/03/28 06:01:32;;;;;;;5.45;1.00;;;5.00;99.90;;;;;;6191201;28;20054;-90
2024/03/28 06:04:33;;;;;;;4.45;0.98;;;5.00;99.90;;;;;;6190449;28;20136;-90
2024/03/28 06:07:34;;;;;;;6.65;1.23;;;5.10;99.90;;;;;;6228350;28;20081;-90
2024/03/28 06:10:34;;;;;;;7.90;1.10;;;5.20;99.90;;;;;;6207600;28;20053;-90
2024/03/28 06:13:35;;;;;;;8.02;1.00;;;5.20;99.90;;;;;;6188665;28;20485;-90
2024/03/28 06:16:39;;;;;;;4.60;0.60;;;5.30;99.90;;;;;;6191476;28;20050;-89
2024/03/28 06:19:40;;;;;;;7.15;0.93;;;5.30;99.90;;;;;;6191536;28;20072;-89
2024/03/28 06:22:40;;;;;;;8.27;1.35;;;5.20;99.90;;;;;;6190502;28;20053;-89
2024/03/28 06:25:41;;;;;;;5.40;1.23;;;5.20;99.90;;;;;;6206626;28;20054;-90
2024/03/28 06:28:42;;;;;;;8.82;1.30;;;5.20;99.90;;;;;;6186089;28;20459;-92
2024/03/28 06:31:44;;;;;;;3.05;0.63;;;5.20;99.90;;;;;;6194873;28;20054;-89
2024/03/28 06:34:45;;;;;;;6.32;0.88;;;5.20;99.90;;;;;;6193678;28;20493;-93
2024/03/28 06:37:46;;;;;;;4.38;0.77;;;5.30;99.90;;;;;;6198299;28;20054;-92
2024/03/28 06:40:46;;;;;;;7.38;1.30;;;5.40;99.90;;;;;;6221712;28;20049;-90
2024/03/28 06:43:48;;;;;;;8.55;1.45;;;5.40;99.90;;;;;;6177353;28;20368;-89
2024/03/28 06:46:49;;;;;;;11.70;1.65;;;5.50;99.90;;;;;;6210876;28;20553;-88
2024/03/28 06:49:50;;;;;;;10.02;1.42;;;5.60;99.90;;;;;;6211218;28;20050;-90
2024/03/28 06:52:50;;;;;;;6.05;0.98;;;5.70;99.90;;;;;;6194973;28;20046;-89
2024/03/28 06:55:51;;;;;;;4.22;0.93;;;5.80;99.90;;;;;;6194290;28;20096;-89
2024/03/28 06:58:52;;;;;;;5.85;0.90;;;5.90;99.90;;;;;;6205104;28;20092;-89
2024/03/28 07:01:53;;;;;;;8.73;1.15;;;6.00;99.90;;;;;;6193212;28;20517;-86
2024/03/28 07:04:53;;;;;;;21.85;1.50;;;6.90;99.90;;;;;;6194414;28;20050;-90
2024/03/28 07:07:54;;;;;;;4.25;0.85;;;7.90;99.90;;;;;;6194684;28;20058;-90
2024/03/28 07:10:57;;;;;;;2.63;0.60;;;8.50;99.90;;;;;;6211019;28;20103;-92
2024/03/28 07:13:57;;;;;;;3.88;0.70;;;8.70;99.90;;;;;;6192782;28;20180;-90
2024/03/28 07:16:58;;;;;;;4.25;0.85;;;8.50;93.90;;;;;;6194871;28;20049;-89
2024/03/28 07:19:59;;;;;;;4.22;0.70;;;8.10;99.50;;;;;;6195621;28;20057;-88
2024/03/28 07:23:00;;;;;;;5.10;0.75;;;7.70;97.60;;;;;;6194735;28;20050;-89
2024/03/28 07:26:02;;;;;;;4.60;0.80;;;7.70;99.90;;;;;;6195054;28;20049;-92
2024/03/28 07:29:03;;;;;;;4.82;0.63;;;7.50;97.60;;;;;;6198937;28;20136;-89
2024/03/28 07:32:03;;;;;;;4.72;1.00;;;7.30;99.60;;;;;;6210370;28;20084;-89
2024/03/28 07:35:05;;;;;;;3.22;0.88;;;7.20;99.60;;;;;;6194395;28;20390;-89
2024/03/28 07:38:06;;;;;;;3.83;0.82;;;7.30;99.90;;;;;;6194524;28;20049;-88
2024/03/28 07:41:07;;;;;;;7.30;1.00;;;7.30;99.90;;;;;;6192501;28;20477;-89
2024/03/28 07:44:07;;;;;;;3.65;0.88;;;8.10;99.90;;;;;;6204356;28;20053;-90
2024/03/28 07:47:08;;;;;;;2.83;0.77;;;8.00;99.90;;;;;;6194441;28;20052;-90
2024/03/28 07:50:09;;;;;;;3.80;1.00;;;8.70;99.90;;;;;;6194059;28;20046;-89
2024/03/28 07:53:10;;;;;;;3.53;0.65;;;9.00;96.10;;;;;;6194785;28;20049;-88
2024/03/28 07:56:10;;;;;;;3.72;0.85;;;8.90;80.90;;;;;;6209753;28;20046;-89
2024/03/28 07:59:11;;;;;;;4.38;0.85;;;8.70;89.20;;;;;;6191516;28;20057;-88
2024/03/28 08:02:12;;;;;;;3.72;0.70;;;8.40;87.50;;;;;;6192878;28;20058;-90
2024/03/28 08:05:13;;;;;;;5.20;0.80;;;8.00;91.50;;;;;;6210421;28;20132;-87
2024/03/28 08:08:14;;;;;;;5.18;0.80;;;7.90;94.90;;;;;;6193508;28;20056;-90
2024/03/28 08:11:15;;;;;;;4.72;0.80;;;7.90;95.80;;;;;;6208928;28;20117;-90
2024/03/28 08:14:16;;;;;;;3.15;0.70;;;8.20;99.90;;;;;;6177973;28;20100;-91
2024/03/28 08:17:17;;;;;;;3.70;0.88;;;7.90;97.60;;;;;;6213112;28;20141;-92
2024/03/28 08:20:17;;;;;;;2.92;0.75;;;7.60;99.90;;;;;;6216661;28;20063;-92
2024/03/28 08:23:18;;;;;;;4.20;0.70;;;7.20;99.90;;;;;;6209852;28;20064;-87
2024/03/28 08:26:20;;;;;;;3.33;0.73;;;6.90;99.90;;;;;;6208608;28;20053;-88
2024/03/28 08:29:22;;;;;;;2.83;0.70;;;6.60;99.90;;;;;;6201530;28;20057;-85
2024/03/28 08:32:22;;;;;;;2.90;0.60;;;6.90;99.90;;;;;;6189141;28;20058;-89
2024/03/28 08:35:23;;;;;;;3.10;0.60;;;6.90;99.90;;;;;;6191311;28;20141;-85
2024/03/28 08:38:25;;;;;;;2.88;0.55;;;7.00;99.90;;;;;;6204577;28;20085;-83
2024/03/28 08:41:26;;;;;;;3.08;0.70;;;7.40;99.90;;;;;;6187418;28;20070;-83
2024/03/28 08:44:27;;;;;;;5.53;0.90;;;7.70;99.90;;;;;;6168666;28;20054;-86
2024/03/28 08:47:28;;;;;;;4.45;1.00;;;8.20;99.90;;;;;;6184898;28;20058;-83
2024/03/28 08:50:29;;;;;;;3.10;0.70;;;9.10;99.90;;;;;;6186549;28;20076;-85
2024/03/28 08:53:30;;;;;;;1.65;0.63;;;10.50;99.90;;;;;;6187705;28;20081;-88
2024/03/28 08:56:31;;;;;;;3.47;1.10;;;10.80;86.10;;;;;;6190267;28;20084;-89
2024/03/28 08:59:32;;;;;;;4.25;1.00;;;10.10;90.60;;;;;;6171602;28;20046;-89
2024/03/28 09:02:34;;;;;;;4.35;0.95;;;10.30;89.10;;;;;;6206758;28;20204;-89
2024/03/28 09:05:37;;;;;;;3.60;0.82;;;11.60;86.00;;;;;;6192083;28;20061;-87
2024/03/28 09:08:38;;;;;;;2.55;0.63;;;12.60;74.70;;;;;;6191567;28;20065;-87
2024/03/28 09:11:39;;;;;;;3.92;1.15;;;13.50;63.10;;;;;;6208303;28;20049;-87
2024/03/28 09:14:40;;;;;;;3.15;0.70;;;13.20;3.30;;;;;;6172873;28;20050;-88
2024/03/28 09:17:40;;;;;;;4.80;0.93;;;12.90;48.00;;;;;;6207676;28;20057;-89
2024/03/28 09:20:41;;;;;;;4.53;0.90;;;13.20;17.30;;;;;;6208634;28;20049;-90
2024/03/28 09:23:42;;;;;;;5.25;1.20;;;13.80;12.10;;;;;;6191182;28;20060;-92
2024/03/28 09:26:43;;;;;;;5.30;1.08;;;13.90;1.00;;;;;;6206477;28;20050;-89
2024/03/28 09:29:44;;;;;;;8.48;1.40;;;12.70;1.00;;;;;;6179277;28;20058;-90
2024/03/28 09:32:45;;;;;;;5.47;1.02;;;12.30;1.00;;;;;;6206354;28;20061;-81
2024/03/28 09:35:46;;;;;;;4.00;0.90;;;12.80;1.00;;;;;;6207383;28;20042;-90
2024/03/28 09:38:53;;;;;;;6.88;1.30;;;12.70;1.00;;;;;;6190161;28;20505;-85
2024/03/28 09:41:53;;;;;;;7.57;1.20;;;13.50;1.00;;;;;;6164748;28;20081;-86
2024/03/28 09:44:54;;;;;;;3.97;1.15;;;13.30;1.00;;;;;;6162026;28;20053;-84
2024/03/28 09:47:55;;;;;;;7.93;1.25;;;13.50;1.00;;;;;;6166838;28;20110;-86
2024/03/28 09:50:56;;;;;;;7.30;1.00;;;13.90;1.00;;;;;;6166825;28;20050;-88
2024/03/28 09:53:56;;;;;;;5.78;1.17;;;13.20;1.00;;;;;;6182653;28;20057;-89
2024/03/28 09:56:57;;;;;;;5.22;1.10;;;13.10;1.00;;;;;;6181832;28;20144;-92
2024/03/28 09:59:58;;;;;;;5.93;1.17;;;13.30;1.00;;;;;;6172146;28;20386;-88
2024/03/28 10:02:59;;;;;;;4.43;1.08;;;14.20;1.00;;;;;;6206855;28;20062;-93
2024/03/28 10:05:59;;;;;;;4.63;1.02;;;14.50;1.00;;;;;;6196232;28;20062;-92
2024/03/28 10:09:00;;;;;;;5.13;1.45;;;15.80;1.00;;;;;;6195553;28;20058;-90
2024/03/28 10:12:01;;;;;;;4.18;1.00;;;15.00;1.00;;;;;;6212140;28;20508;-88
2024/03/28 10:15:04;;;;;;;6.32;1.20;;;15.30;1.00;;;;;;6207204;28;20058;-89
2024/03/28 10:18:07;;;;;;;5.00;1.08;;;14.80;1.00;;;;;;6187229;28;20053;-86
2024/03/28 10:21:11;;;;;;;4.85;1.10;;;14.10;1.00;;;;;;6187043;28;20054;-90
2024/03/28 10:24:12;;;;;;;5.13;1.02;;;13.80;1.00;;;;;;6174153;28;20060;-92
2024/03/28 10:27:13;;;;;;;7.25;1.20;;;14.30;1.00;;;;;;6196006;28;20054;-89
2024/03/28 10:30:13;;;;;;;4.47;1.10;;;14.00;1.00;;;;;;6179848;28;20057;-84
2024/03/28 10:33:14;;;;;;;2.45;0.65;;;13.50;1.00;;;;;;6195146;28;20049;-89
2024/03/28 10:36:15;;;;;;;4.45;0.95;;;13.90;1.00;;;;;;6182869;28;20053;-93
2024/03/28 10:39:16;;;;;;;7.10;1.40;;;14.00;1.00;;;;;;6202368;28;20050;-93
2024/03/28 10:42:17;;;;;;;6.15;1.27;;;12.90;1.00;;;;;;6194693;28;20505;-88
2024/03/28 10:45:18;;;;;;;6.55;1.30;;;12.40;1.00;;;;;;6178822;28;20054;-87
2024/03/28 10:48:18;;;;;;;6.22;1.50;;;11.90;1.00;;;;;;6192949;28;20057;-88
2024/03/28 10:51:20;;;;;;;11.85;1.88;;;12.20;1.00;;;;;;6194693;28;20045;-86
2024/03/28 10:54:21;;;;;;;6.40;1.55;;;12.70;1.00;;;;;;6194866;28;20053;-88
2024/03/28 10:57:22;;;;;;;9.15;1.70;;;12.30;1.00;;;;;;6183224;28;20117;-84
2024/03/28 11:00:23;;;;;;;8.18;1.40;;;11.90;1.00;;;;;;6181868;28;20058;-86
2024/03/28 11:03:24;;;;;;;9.25;1.77;;;11.60;3.80;;;;;;6194156;28;20069;-87
2024/03/28 11:06:25;;;;;;;10.15;1.77;;;11.70;2.90;;;;;;6194054;28;20057;-92
2024/03/28 11:09:25;;;;;;;9.23;1.40;;;11.60;1.00;;;;;;6193806;28;20068;-86
2024/03/28 11:12:26;;;;;;;8.80;1.60;;;11.30;1.00;;;;;;6193177;28;20053;-86
2024/03/28 11:15:27;;;;;;;11.55;1.92;;;11.00;7.20;;;;;;6199639;28;20062;-87
2024/03/28 11:18:28;;;;;;;9.18;1.65;;;10.70;30.70;;;;;;6191655;28;20179;-84
2024/03/28 11:21:28;;;;;;;7.82;1.63;;;10.20;37.10;;;;;;6193356;28;20050;-84
2024/03/28 11:24:29;;;;;;;11.00;1.90;;;10.00;80.70;;;;;;6207769;28;20049;-88
2024/03/28 11:27:30;;;;;;;5.85;1.27;;;9.90;93.80;;;;;;6193467;28;20057;-88
2024/03/28 11:30:31;;;;;;;7.40;1.33;;;9.50;90.60;;;;;;6179417;28;20093;-87
2024/03/28 11:33:31;;;;;;;9.13;1.60;;;9.50;99.90;;;;;;6192205;28;20419;-83
2024/03/28 11:36:32;;;;;;;5.93;1.50;;;9.50;99.90;;;;;;6189115;28;20050;-84
2024/03/28 11:39:33;;;;;;;7.45;1.20;;;9.30;99.90;;;;;;6182536;28;20065;-85
2024/03/28 11:42:34;;;;;;;8.65;1.50;;;8.90;99.90;;;;;;6190973;28;20137;-86
2024/03/28 11:45:34;;;;;;;6.90;1.60;;;8.80;99.90;;;;;;6201745;28;20464;-85
2024/03/28 11:48:36;;;;;;;8.10;1.30;;;8.80;99.90;;;;;;6181191;28;20173;-80
2024/03/28 11:51:36;;;;;;;6.05;0.93;;;8.70;99.90;;;;;;6163135;28;20058;-81
2024/03/28 11:54:37;;;;;;;9.38;1.20;;;8.30;99.90;;;;;;6178578;28;20116;-86
2024/03/28 11:57:41;;;;;;;4.32;1.02;;;8.10;99.90;;;;;;6185736;28;20100;-90
2024/03/28 12:00:42;;;;;;;6.45;1.30;;;8.00;99.90;;;;;;6175004;28;20050;-88
2024/03/28 12:03:42;;;;;;;8.75;1.25;;;7.90;99.90;;;;;;6213921;28;20132;-92
2024/03/28 12:06:43;;;;;;;4.25;1.15;;;7.80;99.90;;;;;;6217006;28;20054;-93
2024/03/28 12:09:44;;;;;;;9.88;1.40;;;7.70;99.90;;;;;;6221545;28;20088;-93
2024/03/28 12:12:44;;;;;;;7.47;1.20;;;7.60;99.90;;;;;;6187852;28;20064;-91
2024/03/28 12:15:45;;;;;;;9.63;1.50;;;7.50;99.90;;;;;;6196240;28;20050;-89
2024/03/28 12:18:46;;;;;;;10.00;1.33;;;7.60;99.90;;;;;;6194474;28;20053;-90
2024/03/28 12:21:47;;;;;;;8.82;1.45;;;7.60;99.90;;;;;;6190528;28;20061;-82
2024/03/28 12:24:47;;;;;;;8.90;1.65;;;7.60;99.90;;;;;;6183925;28;20054;-83
2024/03/28 12:27:48;;;;;;;9.02;1.45;;;7.60;99.90;;;;;;6205790;28;20050;-88
2024/03/28 12:30:49;;;;;;;13.68;1.50;;;7.80;99.90;;;;;;6206448;28;20076;-87
2024/03/28 12:33:50;;;;;;;9.45;2.13;;;7.80;99.90;;;;;;6208081;28;20050;-90
2024/03/28 12:36:51;;;;;;;13.15;1.60;;;7.90;99.90;;;;;;6183307;28;20086;-88
2024/03/28 12:39:52;;;;;;;13.45;1.90;;;7.90;99.90;;;;;;6183765;28;20101;-87
2024/03/28 12:42:52;;;;;;;20.58;3.20;;;7.90;99.90;;;;;;6167778;28;20271;-87
2024/03/28 12:45:53;;;;;;;16.35;2.35;;;8.00;99.90;;;;;;6201674;28;20605;-93
2024/03/28 12:48:54;;;;;;;15.57;2.30;;;8.10;99.90;;;;;;6175761;28;20081;-93
2024/03/28 12:51:55;;;;;;;16.98;2.45;;;8.30;99.90;;;;;;6183696;28;20050;-86
2024/03/28 12:54:55;;;;;;;14.40;2.58;;;8.50;99.90;;;;;;6184140;28;20050;-89
2024/03/28 12:57:56;;;;;;;17.00;2.30;;;8.70;99.90;;;;;;6180845;28;20058;-82
2024/03/28 13:00:56;;;;;;;13.43;2.40;;;8.80;99.90;;;;;;6170545;28;20509;-83
2024/03/28 13:03:57;;;;;;;13.00;2.63;;;9.30;99.90;;;;;;6203037;28;20065;-83
2024/03/28 13:06:58;;;;;;;13.95;2.67;;;9.50;99.90;;;;;;6203304;28;20050;-81
2024/03/28 13:09:58;;;;;;;18.50;2.80;;;9.60;99.90;;;;;;6198974;28;20494;-81
2024/03/28 13:12:59;;;;;;;16.55;2.83;;;10.00;99.90;;;;;;6200729;28;20506;-83
2024/03/28 13:16:00;;;;;;;16.73;2.90;;;10.10;99.90;;;;;;6197118;28;20068;-82
2024/03/28 13:19:00;;;;;;;19.45;3.13;;;10.30;99.90;;;;;;6201296;28;20409;-81
2024/03/28 13:22:01;;;;;;;17.58;3.20;;;11.10;94.00;;;;;;6201074;28;20064;-83
2024/03/28 13:25:03;;;;;;;15.63;3.38;;;11.70;95.20;;;;;;6201845;28;20046;-84
2024/03/28 13:28:04;;;;;;;17.73;3.63;;;11.70;96.80;;;;;;6201125;28;20136;-83
2024/03/28 13:31:04;;;;;;;18.23;3.50;;;11.30;96.20;;;;;;6192407;28;20070;-83
2024/03/28 13:34:05;;;;;;;17.83;3.33;;;10.80;99.90;;;;;;6161979;28;20412;-82
2024/03/28 13:37:06;;;;;;;18.60;3.10;;;10.30;99.90;;;;;;6202782;28;20101;-82
2024/03/28 13:40:07;;;;;;;25.42;4.13;;;10.10;99.90;;;;;;6207241;28;20138;-82
2024/03/28 13:43:08;;;;;;;17.17;3.13;;;10.00;99.90;;;;;;6186633;28;20064;-79
2024/03/28 13:46:11;;;;;;;21.92;4.10;;;9.90;99.90;;;;;;6202526;28;20058;-84
2024/03/28 13:49:11;;;;;;;19.42;3.35;;;10.00;99.90;;;;;;6182559;28;20622;-83
2024/03/28 13:52:12;;;;;;;21.83;3.60;;;10.20;99.90;;;;;;6206412;28;20096;-81
2024/03/28 13:55:13;;;;;;;21.23;3.10;;;10.20;99.90;;;;;;6206080;28;20222;-80
2024/03/28 13:58:14;;;;;;;18.98;2.95;;;10.30;99.90;;;;;;6200631;28;20100;-81
2024/03/28 14:01:14;;;;;;;16.60;3.08;;;10.10;99.90;;;;;;6189581;28;20144;-83
2024/03/28 14:04:16;;;;;;;16.88;3.10;;;10.10;99.90;;;;;;6206115;28;20108;-84
2024/03/28 14:07:16;;;;;;;18.67;3.15;;;9.90;99.90;;;;;;6205418;28;20095;-83
2024/03/28 14:10:17;;;;;;;18.48;3.10;;;9.80;99.90;;;;;;6207658;28;20058;-83
2024/03/28 14:13:18;;;;;;;16.58;2.60;;;9.90;99.90;;;;;;6201883;28;20046;-82
2024/03/28 14:16:18;;;;;;;16.85;2.92;;;9.90;99.90;;;;;;6207446;28;20058;-82
2024/03/28 14:19:19;;;;;;;16.92;3.47;;;10.10;99.90;;;;;;6182081;28;20054;-83
2024/03/28 14:22:20;;;;;;;15.85;3.15;;;10.50;99.90;;;;;;6205547;28;20139;-82
2024/03/28 14:25:20;;;;;;;14.85;3.22;;;10.60;99.90;;;;;;6205711;28;20137;-84
2024/03/28 14:28:21;;;;;;;17.50;3.75;;;10.50;99.90;;;;;;6184594;28;20085;-83
2024/03/28 14:31:22;;;;;;;19.35;3.58;;;10.70;99.90;;;;;;6206204;28;20448;-83
2024/03/28 14:34:23;;;;;;;18.88;2.80;;;10.50;99.90;;;;;;6206234;28;20073;-82
2024/03/28 14:37:23;;;;;;;14.30;2.90;;;10.50;99.90;;;;;;6205954;28;20058;-83
2024/03/28 14:40:24;;;;;;;19.70;2.92;;;10.80;99.90;;;;;;6207330;28;20061;-84
2024/03/28 14:43:25;;;;;;;14.40;2.90;;;11.30;99.90;;;;;;6179666;28;20409;-83
2024/03/28 14:46:25;;;;;;;23.73;3.42;;;11.10;99.90;;;;;;6206822;28;20060;-84
2024/03/28 14:49:26;;;;;;;17.75;3.55;;;11.00;99.90;;;;;;6181154;28;20055;-82
2024/03/28 14:52:27;;;;;;;21.35;3.10;;;11.00;99.90;;;;;;6205276;28;20058;-83
2024/03/28 14:55:27;;;;;;;19.98;3.63;;;10.80;99.90;;;;;;6205479;28;20085;-82
2024/03/28 14:58:28;;;;;;;18.17;3.08;;;10.70;99.90;;;;;;6199655;28;20072;-83
2024/03/28 15:01:29;;;;;;;21.33;3.65;;;10.80;99.90;;;;;;6203192;28;20065;-83
2024/03/28 15:04:29;;;;;;;15.75;2.75;;;10.70;99.90;;;;;;6188362;28;20065;-83
2024/03/28 15:07:30;;;;;;;18.90;3.30;;;10.80;99.90;;;;;;6205197;28;20104;-82
2024/03/28 15:10:33;;;;;;;22.58;4.00;;;10.50;99.90;;;;;;6204112;28;20057;-81
2024/03/28 15:13:35;;;;;;;20.67;3.65;;;10.30;99.90;;;;;;6194380;28;20057;-81
2024/03/28 15:16:38;;;;;;;18.05;3.60;;;10.20;99.90;;;;;;6204513;28;20062;-82
2024/03/28 15:19:39;;;;;;;23.70;4.15;;;10.00;99.90;;;;;;6204450;28;20072;-82
2024/03/28 15:22:40;;;;;;;20.15;3.67;;;10.10;99.90;;;;;;6188472;28;20053;-82
2024/03/28 15:25:41;;;;;;;21.65;3.80;;;10.00;99.90;;;;;;6188703;28;20133;-83
2024/03/28 15:28:41;;;;;;;20.90;3.72;;;9.80;99.90;;;;;;6199575;28;20479;-82
2024/03/28 15:31:44;;;;;;;20.45;3.58;;;9.70;99.90;;;;;;6188910;28;20140;-84
2024/03/28 15:34:45;;;;;;;24.38;3.53;;;9.80;99.90;;;;;;6205085;28;20057;-82
2024/03/28 15:37:45;;;;;;;17.02;2.78;;;9.90;99.90;;;;;;6188534;28;20107;-84
2024/03/28 15:40:46;;;;;;;14.63;2.60;;;10.20;99.90;;;;;;6204644;28;20505;-83
2024/03/28 15:43:47;;;;;;;12.02;2.60;;;10.20;99.90;;;;;;6193973;28;20136;-83
2024/03/28 15:46:48;;;;;;;13.57;2.80;;;10.40;99.90;;;;;;6204849;28;20165;-84
2024/03/28 15:49:49;;;;;;;17.27;2.55;;;10.60;99.90;;;;;;6204863;28;20133;-83
2024/03/28 15:52:49;;;;;;;15.30;2.83;;;10.70;99.90;;;;;;6204624;28;20060;-82
2024/03/28 15:55:52;;;;;;;16.85;2.50;;;10.70;99.90;;;;;;6187757;28;20056;-82